createdAt,value
2019-04-23T00:00:56.256Z,18.84
2019-04-23T00:01:56.954Z,19.05
2019-04-23T00:02:56.656Z,19.06
2019-04-23T00:03:52.055Z,19.17
2019-04-23T00:04:48.039Z,19.10
2019-04-23T00:06:00.128Z,19.01
2019-04-23T00:07:03.520Z,18.96
2019-04-23T00:07:56.176Z,18.86
2019-04-23T00:09:05.412Z,18.82
2019-04-23T00:09:59.565Z,18.72
2019-04-23T00:10:59.151Z,18.76
2019-04-23T00:11:52.823Z,18.94
2019-04-23T00:14:12.436Z,18.87
2019-04-23T00:15:58.743Z,18.76
2019-04-23T00:16:57.869Z,19.05
2019-04-23T00:18:19.875Z,19.07
2019-04-23T00:19:07.670Z,19.23
2019-04-23T00:19:55.378Z,19.21
2019-04-23T00:20:57.715Z,19.25
2019-04-23T00:21:55.029Z,19.31
2019-04-23T00:24:01.696Z,19.21
2019-04-23T00:25:53.744Z,19.09
2019-04-23T00:26:52.117Z,19.24
2019-04-23T00:28:04.573Z,19.12
2019-04-23T00:29:00.512Z,19.12
2019-04-23T00:31:49.925Z,18.91
2019-04-23T00:32:56.000Z,18.89
2019-04-23T00:33:51.186Z,18.89
2019-04-23T00:34:54.623Z,18.71
2019-04-23T00:35:52.866Z,18.56
2019-04-23T00:36:51.681Z,18.51
2019-04-23T00:37:49.579Z,18.39
2019-04-23T00:38:50.158Z,18.46
2019-04-23T00:40:03.125Z,18.36
2019-04-23T00:40:51.094Z,18.44
2019-04-23T00:41:55.339Z,18.41
2019-04-23T00:43:09.119Z,18.49
2019-04-23T00:43:54.717Z,18.53
2019-04-23T00:44:54.416Z,18.62
2019-04-23T00:45:51.123Z,18.65
2019-04-23T00:46:54.679Z,18.64
2019-04-23T00:47:49.881Z,18.64
2019-04-23T00:48:57.957Z,18.60
2019-04-23T00:50:04.322Z,18.53
2019-04-23T00:51:56.986Z,18.50
2019-04-23T00:52:50.655Z,18.39
2019-04-23T00:53:51.323Z,18.54
2019-04-23T00:54:57.030Z,18.39
2019-04-23T00:56:03.909Z,18.29
2019-04-23T00:56:54.560Z,18.23
2019-04-23T00:58:56.406Z,18.01
2019-04-23T01:00:29.548Z,17.98
2019-04-23T01:01:04.376Z,17.96
2019-04-23T01:02:53.323Z,17.62
2019-04-23T01:03:52.998Z,17.39
2019-04-23T01:04:56.431Z,17.17
2019-04-23T01:06:08.073Z,16.98
2019-04-23T01:06:51.190Z,16.78
2019-04-23T01:07:51.633Z,16.73
2019-04-23T01:08:50.714Z,16.33
2019-04-23T01:09:56.077Z,16.13
2019-04-23T01:10:59.821Z,15.99
2019-04-23T01:11:48.206Z,15.86
2019-04-23T01:12:52.904Z,15.73
2019-04-23T01:13:57.563Z,15.62
2019-04-23T01:14:58.802Z,15.52
2019-04-23T01:15:54.245Z,15.41
2019-04-23T01:16:55.041Z,15.35
2019-04-23T01:17:58.255Z,15.31
2019-04-23T01:18:54.522Z,15.15
2019-04-23T01:19:49.460Z,15.07
2019-04-23T01:20:52.857Z,15.05
2019-04-23T01:21:30.777Z,15.01
2019-04-23T01:22:29.747Z,15.07
2019-04-23T01:23:37.695Z,15.13
2019-04-23T01:24:34.433Z,15.13
2019-04-23T01:25:40.758Z,15.00
2019-04-23T01:27:01.701Z,14.94
2019-04-23T01:28:08.074Z,14.85
2019-04-23T01:28:55.758Z,14.72
2019-04-23T01:30:00.067Z,14.80
2019-04-23T01:31:03.733Z,14.98
2019-04-23T01:31:57.518Z,15.04
2019-04-23T01:32:59.468Z,15.11
2019-04-23T01:33:56.572Z,15.05
2019-04-23T01:35:06.960Z,14.97
2019-04-23T01:36:14.351Z,14.87
2019-04-23T01:36:56.143Z,14.63
2019-04-23T01:37:55.780Z,14.53
2019-04-23T01:39:11.538Z,14.34
2019-04-23T01:39:57.846Z,14.17
2019-04-23T01:40:58.468Z,13.87
2019-04-23T01:42:03.657Z,13.81
2019-04-23T01:43:07.731Z,13.87
2019-04-23T01:43:50.586Z,13.96
2019-04-23T01:45:00.197Z,13.87
2019-04-23T01:45:54.622Z,13.80
2019-04-23T01:46:54.196Z,13.65
2019-04-23T01:47:58.340Z,13.71
2019-04-23T01:48:58.715Z,13.53
2019-04-23T01:50:06.651Z,13.46
2019-04-23T01:50:58.877Z,13.17
2019-04-23T01:53:00.793Z,13.29
2019-04-23T01:53:58.775Z,13.69
2019-04-23T01:55:06.095Z,13.91
2019-04-23T01:56:01.241Z,13.79
2019-04-23T01:56:56.729Z,13.72
2019-04-23T01:58:07.008Z,13.48
2019-04-23T01:59:00.278Z,13.32
2019-04-23T02:00:03.387Z,13.25
2019-04-23T02:00:53.994Z,13.03
2019-04-23T02:01:58.698Z,12.89
2019-04-23T02:03:06.040Z,12.76
2019-04-23T02:05:01.273Z,12.52
2019-04-23T02:07:01.186Z,12.30
2019-04-23T02:07:56.385Z,12.11
2019-04-23T02:09:00.584Z,12.18
2019-04-23T02:10:12.766Z,12.03
2019-04-23T02:10:58.818Z,11.96
2019-04-23T02:11:59.124Z,11.93
2019-04-23T02:13:01.874Z,11.82
2019-04-23T02:13:58.282Z,11.77
2019-04-23T02:14:59.374Z,11.59
2019-04-23T02:15:53.359Z,11.60
2019-04-23T02:16:57.924Z,11.57
2019-04-23T02:17:57.991Z,11.45
2019-04-23T02:18:56.981Z,11.45
2019-04-23T02:20:01.031Z,11.23
2019-04-23T02:20:59.602Z,11.28
2019-04-23T02:22:13.146Z,11.21
2019-04-23T02:23:04.675Z,11.20
2019-04-23T02:23:54.375Z,11.20
2019-04-23T02:25:02.075Z,11.23
2019-04-23T02:25:54.233Z,11.23
2019-04-23T02:27:05.955Z,11.09
2019-04-23T02:28:04.803Z,10.99
2019-04-23T02:29:03.559Z,10.86
2019-04-23T02:30:20.878Z,11.03
2019-04-23T02:32:03.620Z,10.95
2019-04-23T02:33:13.141Z,10.86
2019-04-23T02:35:08.763Z,10.87
2019-04-23T02:36:02.489Z,10.93
2019-04-23T02:37:22.099Z,10.88
2019-04-23T02:38:27.298Z,10.91
2019-04-23T02:38:57.331Z,10.87
2019-04-23T02:45:07.114Z,10.55
2019-04-23T02:48:10.835Z,10.51
2019-04-23T02:49:12.636Z,10.62
2019-04-23T02:50:29.702Z,10.57
2019-04-23T02:51:22.500Z,10.55
2019-04-23T02:53:04.798Z,10.72
2019-04-23T02:54:16.448Z,10.73
2019-04-23T02:55:18.036Z,10.63
2019-04-23T02:56:55.348Z,10.65
2019-04-23T02:58:02.076Z,10.68
2019-04-23T03:02:14.473Z,10.86
2019-04-23T03:06:04.937Z,10.81
2019-04-23T03:09:04.440Z,10.70
2019-04-23T03:10:11.830Z,10.57
2019-04-23T03:12:06.395Z,10.42
2019-04-23T03:13:09.780Z,10.42
2019-04-23T03:14:04.266Z,10.38
2019-04-23T03:16:06.511Z,10.28
2019-04-23T03:18:21.201Z,10.25
2019-04-23T03:19:02.560Z,10.18
2019-04-23T03:20:10.659Z,10.14
2019-04-23T03:22:03.390Z,10.02
2019-04-23T03:23:22.557Z,9.93
2019-04-23T03:24:11.103Z,9.98
2019-04-23T03:25:10.603Z,9.93
2019-04-23T03:26:17.378Z,10.02
2019-04-23T03:28:00.916Z,9.99
2019-04-23T03:29:16.302Z,9.95
2019-04-23T03:30:12.137Z,9.85
2019-04-23T03:35:09.368Z,9.88
2019-04-23T03:38:13.341Z,9.83
2019-04-23T03:38:52.031Z,9.80
2019-04-23T03:40:06.020Z,9.74
2019-04-23T03:41:10.789Z,9.73
2019-04-23T03:41:59.677Z,9.77
2019-04-23T03:45:10.108Z,9.65
2019-04-23T03:47:04.185Z,9.48
2019-04-23T03:48:06.401Z,9.35
2019-04-23T03:50:09.355Z,9.24
2019-04-23T03:50:58.708Z,9.22
2019-04-23T03:52:55.247Z,9.19
2019-04-23T03:55:08.146Z,9.08
2019-04-23T03:56:07.940Z,9.06
2019-04-23T03:58:08.181Z,9.01
2019-04-23T04:02:15.498Z,9.12
2019-04-23T04:03:10.852Z,8.94
2019-04-23T04:05:22.181Z,8.86
2019-04-23T04:06:11.456Z,8.91
2019-04-23T04:08:07.240Z,8.96
2019-04-23T04:09:17.316Z,8.91
2019-04-23T04:11:11.135Z,8.82
2019-04-23T04:12:07.861Z,8.85
2019-04-23T04:12:57.005Z,8.88
2019-04-23T04:15:04.237Z,8.89
2019-04-23T04:16:05.124Z,8.85
2019-04-23T04:18:28.632Z,8.88
2019-04-23T04:20:11.032Z,8.83
2019-04-23T04:25:08.781Z,8.85
2019-04-23T04:27:19.256Z,8.79
2019-04-23T04:28:11.560Z,8.73
2019-04-23T04:29:00.611Z,8.70
2019-04-23T04:30:01.599Z,8.65
2019-04-23T04:30:53.821Z,8.67
2019-04-23T04:32:00.678Z,8.63
2019-04-23T04:33:05.684Z,8.64
2019-04-23T04:34:10.728Z,8.54
2019-04-23T04:37:27.065Z,8.65
2019-04-23T04:38:16.408Z,8.49
2019-04-23T04:41:03.082Z,8.52
2019-04-23T04:42:08.308Z,8.46
2019-04-23T04:44:21.806Z,8.63
2019-04-23T04:47:48.702Z,8.91
2019-04-23T04:51:16.432Z,8.91
2019-04-23T04:54:55.836Z,9.01
2019-04-23T04:56:07.717Z,8.91
2019-04-23T04:57:00.195Z,9.06
2019-04-23T04:59:05.598Z,9.13
2019-04-23T05:00:13.217Z,9.15
2019-04-23T05:02:08.778Z,9.24
2019-04-23T05:03:57.352Z,9.31
2019-04-23T05:05:47.840Z,9.17
2019-04-23T05:08:00.700Z,9.16
2019-04-23T05:09:00.766Z,9.22
2019-04-23T05:10:08.787Z,9.20
2019-04-23T05:11:19.650Z,9.22
2019-04-23T05:12:16.163Z,9.20
2019-04-23T05:13:19.487Z,9.26
2019-04-23T05:14:00.344Z,9.20
2019-04-23T05:15:08.955Z,9.23
2019-04-23T05:16:01.848Z,9.24
2019-04-23T05:17:00.167Z,9.27
2019-04-23T05:19:02.649Z,9.26
2019-04-23T05:19:58.978Z,9.34
2019-04-23T05:21:01.820Z,9.52
2019-04-23T05:21:58.955Z,9.62
2019-04-23T05:23:11.291Z,9.63
2019-04-23T05:24:11.534Z,9.78
2019-04-23T05:24:55.441Z,9.74
2019-04-23T05:26:06.408Z,9.80
2019-04-23T05:26:55.490Z,9.83
2019-04-23T05:28:02.832Z,9.83
2019-04-23T05:30:02.827Z,9.91
2019-04-23T05:31:54.928Z,9.99
2019-04-23T05:32:58.731Z,9.99
2019-04-23T05:34:01.058Z,10.04
2019-04-23T05:34:56.130Z,10.06
2019-04-23T05:36:41.654Z,10.18
2019-04-23T05:36:58.322Z,10.13
2019-04-23T05:39:19.292Z,10.24
2019-04-23T05:39:56.706Z,10.29
2019-04-23T05:41:03.976Z,10.38
2019-04-23T05:41:53.719Z,10.44
2019-04-23T05:42:53.342Z,10.47
2019-04-23T05:43:57.983Z,10.57
2019-04-23T05:44:55.241Z,10.69
2019-04-23T05:45:56.360Z,10.81
2019-04-23T05:46:52.134Z,10.90
2019-04-23T05:48:05.106Z,10.95
2019-04-23T05:51:04.329Z,11.24
2019-04-23T05:51:55.521Z,11.24
2019-04-23T05:52:59.245Z,11.39
2019-04-23T05:53:51.345Z,11.45
2019-04-23T05:54:56.432Z,11.62
2019-04-23T05:55:55.431Z,11.62
2019-04-23T05:56:53.481Z,11.62
2019-04-23T05:57:59.278Z,11.64
2019-04-23T05:58:59.579Z,11.81
2019-04-23T05:59:54.877Z,11.78
2019-04-23T06:01:08.679Z,11.97
2019-04-23T06:02:59.280Z,12.15
2019-04-23T06:04:03.925Z,12.22
2019-04-23T06:04:58.856Z,12.22
2019-04-23T06:06:08.211Z,12.31
2019-04-23T06:07:57.945Z,12.36
2019-04-23T06:09:59.190Z,12.52
2019-04-23T06:10:58.665Z,12.62
2019-04-23T06:11:57.043Z,12.69
2019-04-23T06:12:52.263Z,12.73
2019-04-23T06:14:00.221Z,12.89
2019-04-23T06:14:57.564Z,12.96
2019-04-23T06:15:54.080Z,13.03
2019-04-23T06:17:54.225Z,13.01
2019-04-23T06:19:02.916Z,13.10
2019-04-23T06:19:56.948Z,13.24
2019-04-23T06:20:59.076Z,13.24
2019-04-23T06:22:08.931Z,13.17
2019-04-23T06:22:56.115Z,13.22
2019-04-23T06:23:58.323Z,13.27
2019-04-23T06:24:55.073Z,13.35
2019-04-23T06:26:07.949Z,13.39
2019-04-23T06:27:54.966Z,13.55
2019-04-23T06:29:00.432Z,13.72
2019-04-23T06:30:54.348Z,13.76
2019-04-23T06:32:51.463Z,13.81
2019-04-23T06:33:59.335Z,13.99
2019-04-23T06:34:53.119Z,13.96
2019-04-23T06:35:57.207Z,13.93
2019-04-23T06:36:51.425Z,13.98
2019-04-23T06:39:55.553Z,14.16
2019-04-23T06:40:59.537Z,14.13
2019-04-23T06:41:55.029Z,14.30
2019-04-23T06:42:52.123Z,14.13
2019-04-23T06:43:58.401Z,14.17
2019-04-23T06:45:49.318Z,14.30
2019-04-23T06:46:56.927Z,14.39
2019-04-23T06:47:56.455Z,14.60
2019-04-23T06:48:56.752Z,14.71
2019-04-23T06:50:59.575Z,14.69
2019-04-23T06:52:00.712Z,14.69
2019-04-23T06:52:50.038Z,14.63
2019-04-23T06:53:53.357Z,14.52
2019-04-23T06:55:09.307Z,14.56
2019-04-23T06:55:55.717Z,14.48
2019-04-23T06:57:00.670Z,14.41
2019-04-23T06:57:57.074Z,14.35
2019-04-23T06:58:53.026Z,14.48
2019-04-23T07:00:08.405Z,14.49
2019-04-23T07:00:58.711Z,14.42
2019-04-23T07:02:01.080Z,14.66
2019-04-23T07:02:57.034Z,14.74
2019-04-23T07:03:57.197Z,14.75
2019-04-23T07:05:05.233Z,14.82
2019-04-23T07:06:03.753Z,14.95
2019-04-23T07:07:18.774Z,15.09
2019-04-23T07:09:56.213Z,15.38
2019-04-23T07:10:57.631Z,15.40
2019-04-23T07:11:49.815Z,15.58
2019-04-23T07:12:59.365Z,15.59
2019-04-23T07:15:58.775Z,15.95
2019-04-23T07:16:52.740Z,16.25
2019-04-23T07:17:51.850Z,16.54
2019-04-23T07:18:54.418Z,16.65
2019-04-23T07:20:07.009Z,16.50
2019-04-23T07:20:56.488Z,16.33
2019-04-23T07:21:58.902Z,16.47
2019-04-23T07:22:59.864Z,16.50
2019-04-23T07:24:52.791Z,15.86
2019-04-23T07:26:03.286Z,15.46
2019-04-23T07:26:45.464Z,15.64
2019-04-23T07:27:47.404Z,15.64
2019-04-23T07:28:56.470Z,15.78
2019-04-23T07:31:03.878Z,15.93
2019-04-23T07:31:54.089Z,16.08
2019-04-23T07:35:02.552Z,16.60
2019-04-23T07:35:51.910Z,16.67
2019-04-23T07:36:55.409Z,16.82
2019-04-23T07:38:01.798Z,16.84
2019-04-23T07:40:11.408Z,16.59
2019-04-23T07:40:57.422Z,16.73
2019-04-23T07:42:55.154Z,17.20
2019-04-23T07:43:57.180Z,17.32
2019-04-23T07:44:58.068Z,17.51
2019-04-23T07:45:51.941Z,17.45
2019-04-23T07:47:07.404Z,17.22
2019-04-23T07:48:01.595Z,17.28
2019-04-23T07:48:47.675Z,17.57
2019-04-23T07:50:00.994Z,17.84
2019-04-23T07:51:55.207Z,18.57
2019-04-23T07:53:01.923Z,18.91
2019-04-23T07:54:01.323Z,18.86
2019-04-23T07:55:02.580Z,19.12
2019-04-23T07:55:56.434Z,19.06
2019-04-23T07:57:02.959Z,18.79
2019-04-23T07:58:00.284Z,18.62
2019-04-23T07:58:54.365Z,18.51
2019-04-23T07:59:58.978Z,18.51
2019-04-23T08:01:06.957Z,18.53
2019-04-23T08:01:57.448Z,18.04
2019-04-23T08:03:01.148Z,17.84
2019-04-23T08:03:54.168Z,17.92
2019-04-23T08:05:04.793Z,17.91
2019-04-23T08:05:52.393Z,17.70
2019-04-23T08:06:54.495Z,17.77
2019-04-23T08:07:56.703Z,18.09
2019-04-23T08:09:53.321Z,17.99
2019-04-23T08:11:16.320Z,18.14
2019-04-23T08:12:02.985Z,18.29
2019-04-23T08:12:56.000Z,18.35
2019-04-23T08:15:05.162Z,18.11
2019-04-23T08:16:01.968Z,18.29
2019-04-23T08:16:56.193Z,18.59
2019-04-23T08:17:53.097Z,18.89
2019-04-23T08:20:03.103Z,19.30
2019-04-23T08:22:02.490Z,19.12
2019-04-23T08:22:54.904Z,18.26
2019-04-23T08:23:58.626Z,17.96
2019-04-23T08:24:57.316Z,17.79
2019-04-23T08:26:02.799Z,17.74
2019-04-23T08:26:55.230Z,17.76
2019-04-23T08:27:49.717Z,17.43
2019-04-23T08:29:47.793Z,17.30
2019-04-23T08:30:53.778Z,17.46
2019-04-23T08:32:00.637Z,17.77
2019-04-23T08:32:55.339Z,17.91
2019-04-23T08:33:57.441Z,18.02
2019-04-23T08:35:58.970Z,17.71
2019-04-23T08:36:58.307Z,17.53
2019-04-23T08:38:06.557Z,17.70
2019-04-23T08:38:53.948Z,17.81
2019-04-23T08:39:47.152Z,17.96
2019-04-23T08:41:02.828Z,18.09
2019-04-23T08:42:12.544Z,18.31
2019-04-23T08:43:00.675Z,18.26
2019-04-23T08:44:18.266Z,18.28
2019-04-23T08:45:03.487Z,18.54
2019-04-23T08:45:53.041Z,18.84
2019-04-23T08:47:56.494Z,18.89
2019-04-23T08:49:01.815Z,19.42
2019-04-23T08:50:04.350Z,19.86
2019-04-23T08:50:49.058Z,19.90
2019-04-23T08:52:00.136Z,19.76
2019-04-23T08:52:56.235Z,20.00
2019-04-23T08:54:13.293Z,19.98
2019-04-23T08:54:52.324Z,19.67
2019-04-23T08:55:55.018Z,19.24
2019-04-23T08:56:55.242Z,19.13
2019-04-23T08:57:47.399Z,19.28
2019-04-23T08:58:49.352Z,19.62
2019-04-23T09:00:00.387Z,19.62
2019-04-23T09:00:58.597Z,19.78
2019-04-23T09:02:10.561Z,20.19
2019-04-23T09:03:13.165Z,20.30
2019-04-23T09:03:45.737Z,20.17
2019-04-23T09:04:55.333Z,20.17
2019-04-23T09:06:53.157Z,20.51
2019-04-23T09:08:05.190Z,20.30
2019-04-23T09:09:01.949Z,20.56
2019-04-23T09:10:01.809Z,20.76
2019-04-23T09:10:55.893Z,20.73
2019-04-23T09:13:14.147Z,19.83
2019-04-23T09:13:59.670Z,20.26
2019-04-23T09:14:50.983Z,20.96
2019-04-23T09:16:57.927Z,22.17
2019-04-23T09:18:12.334Z,22.76
2019-04-23T09:18:52.801Z,23.14
2019-04-23T09:20:52.961Z,23.54
2019-04-23T09:22:06.112Z,23.07
2019-04-23T09:22:50.319Z,23.19
2019-04-23T09:23:54.479Z,23.32
2019-04-23T09:24:55.839Z,23.19
2019-04-23T09:25:56.330Z,23.47
2019-04-23T09:27:01.965Z,23.77
2019-04-23T09:27:53.100Z,23.42
2019-04-23T09:28:51.837Z,23.57
2019-04-23T09:31:00.341Z,23.44
2019-04-23T09:32:51.951Z,23.82
2019-04-23T09:33:58.311Z,23.82
2019-04-23T09:35:01.483Z,23.62
2019-04-23T09:35:54.003Z,23.87
2019-04-23T09:36:59.681Z,24.34
2019-04-23T09:37:54.100Z,24.42
2019-04-23T09:38:55.843Z,24.23
2019-04-23T09:40:03.751Z,23.82
2019-04-23T09:41:06.921Z,23.37
2019-04-23T09:41:51.437Z,23.09
2019-04-23T09:42:54.365Z,22.69
2019-04-23T09:43:53.653Z,22.67
2019-04-23T09:44:58.498Z,22.85
2019-04-23T09:45:59.770Z,22.99
2019-04-23T09:46:53.190Z,23.04
2019-04-23T09:47:56.861Z,22.88
2019-04-23T09:48:59.749Z,22.60
2019-04-23T09:49:56.246Z,22.63
2019-04-23T09:51:51.549Z,22.64
2019-04-23T09:53:06.255Z,22.19
2019-04-23T09:53:56.281Z,22.27
2019-04-23T09:55:02.097Z,22.67
2019-04-23T09:55:46.189Z,22.89
2019-04-23T09:58:00.512Z,23.18
2019-04-23T09:58:51.433Z,23.15
2019-04-23T09:59:51.348Z,22.93
2019-04-23T10:00:45.677Z,23.03
2019-04-23T10:01:46.782Z,22.72
2019-04-23T10:02:41.129Z,22.02
2019-04-23T10:03:38.780Z,21.98
2019-04-23T10:04:41.246Z,22.21
2019-04-23T10:05:39.158Z,22.30
2019-04-23T10:06:30.911Z,22.51
2019-04-23T10:07:38.394Z,22.70
2019-04-23T10:08:31.987Z,22.60
2019-04-23T10:09:27.423Z,22.44
2019-04-23T10:10:24.052Z,22.49
2019-04-23T10:11:24.398Z,22.63
2019-04-23T10:12:24.322Z,22.93
2019-04-23T10:13:24.210Z,23.11
2019-04-23T10:14:24.255Z,22.76
2019-04-23T10:15:28.829Z,22.02
2019-04-23T10:16:27.979Z,21.81
2019-04-23T10:17:26.267Z,21.28
2019-04-23T10:18:24.416Z,21.48
2019-04-23T10:19:24.680Z,21.73
2019-04-23T10:20:24.818Z,21.81
2019-04-23T10:21:24.264Z,22.01
2019-04-23T10:22:25.129Z,22.17
2019-04-23T10:23:25.146Z,21.93
2019-04-23T10:24:25.331Z,21.68
2019-04-23T10:25:23.890Z,21.79
2019-04-23T10:26:24.157Z,21.99
2019-04-23T10:27:25.175Z,22.17
2019-04-23T10:28:24.719Z,22.42
2019-04-23T10:29:23.960Z,22.24
2019-04-23T10:30:23.877Z,22.26
2019-04-23T10:31:25.134Z,22.52
2019-04-23T10:32:25.277Z,22.75
2019-04-23T10:33:24.113Z,22.86
2019-04-23T10:34:25.233Z,23.04
2019-04-23T10:35:35.110Z,23.14
2019-04-23T10:36:27.680Z,23.21
2019-04-23T10:37:34.232Z,23.19
2019-04-23T10:38:26.725Z,23.09
2019-04-23T10:39:29.592Z,23.31
2019-04-23T10:40:30.272Z,23.57
2019-04-23T10:41:25.729Z,23.86
2019-04-23T10:42:25.437Z,24.06
2019-04-23T10:43:25.067Z,23.86
2019-04-23T10:44:23.692Z,24.12
2019-04-23T10:45:35.168Z,24.36
2019-04-23T10:46:43.000Z,24.63
2019-04-23T10:47:59.405Z,25.04
2019-04-23T10:49:22.203Z,25.27
2019-04-23T10:50:00.738Z,25.66
2019-04-23T10:51:06.191Z,26.20
2019-04-23T10:51:51.651Z,26.71
2019-04-23T10:53:02.495Z,26.94
2019-04-23T10:53:50.617Z,27.21
2019-04-23T10:54:45.383Z,27.42
2019-04-23T10:55:58.881Z,27.61
2019-04-23T10:56:55.276Z,27.28
2019-04-23T10:57:49.448Z,27.40
2019-04-23T10:58:45.910Z,27.55
2019-04-23T10:59:47.364Z,27.38
2019-04-23T11:00:55.683Z,27.13
2019-04-23T11:02:00.705Z,27.18
2019-04-23T11:02:51.648Z,26.72
2019-04-23T11:04:08.326Z,26.51
2019-04-23T11:06:50.613Z,26.31
2019-04-23T11:07:42.191Z,26.00
2019-04-23T11:08:55.932Z,25.49
2019-04-23T11:09:59.570Z,24.90
2019-04-23T11:10:50.408Z,24.68
2019-04-23T11:11:56.522Z,24.60
2019-04-23T11:13:56.574Z,24.77
2019-04-23T11:14:57.942Z,25.16
2019-04-23T11:16:21.600Z,25.35
2019-04-23T11:16:57.663Z,25.82
2019-04-23T11:17:59.292Z,25.75
2019-04-23T11:18:58.295Z,25.83
2019-04-23T11:20:02.091Z,25.78
2019-04-23T11:20:49.409Z,25.67
2019-04-23T11:24:04.713Z,25.42
2019-04-23T11:25:48.478Z,25.64
2019-04-23T11:27:01.830Z,25.34
2019-04-23T11:28:51.832Z,25.42
2019-04-23T11:30:03.311Z,25.27
2019-04-23T11:30:45.222Z,25.34
2019-04-23T11:31:58.469Z,24.93
2019-04-23T11:33:03.727Z,24.66
2019-04-23T11:36:18.719Z,24.68
2019-04-23T11:38:06.511Z,25.20
2019-04-23T11:40:01.720Z,25.02
2019-04-23T11:40:51.296Z,24.49
2019-04-23T11:41:57.784Z,24.84
2019-04-23T11:43:04.454Z,24.68
2019-04-23T11:44:14.075Z,24.75
2019-04-23T11:44:56.557Z,24.94
2019-04-23T11:49:59.588Z,25.46
2019-04-23T11:50:56.017Z,25.02
2019-04-23T11:52:01.572Z,24.71
2019-04-23T11:52:54.438Z,25.14
2019-04-23T11:53:57.599Z,25.14
2019-04-23T11:54:53.018Z,25.05
2019-04-23T11:55:51.700Z,25.61
2019-04-23T11:58:07.518Z,25.51
2019-04-23T11:58:57.745Z,25.81
2019-04-23T12:01:02.159Z,25.71
2019-04-23T12:01:52.958Z,26.00
2019-04-23T12:02:58.054Z,26.42
2019-04-23T12:04:05.199Z,26.47
2019-04-23T12:05:05.759Z,26.56
2019-04-23T12:06:00.308Z,26.46
2019-04-23T12:06:52.762Z,26.42
2019-04-23T12:07:53.763Z,26.27
2019-04-23T12:09:07.432Z,26.11
2019-04-23T12:11:27.195Z,26.61
2019-04-23T12:12:44.650Z,25.96
2019-04-23T12:14:02.459Z,25.56
2019-04-23T12:15:53.443Z,26.49
2019-04-23T12:16:57.333Z,27.34
2019-04-23T12:17:54.194Z,27.34
2019-04-23T12:19:17.943Z,27.34
2019-04-23T12:19:55.886Z,27.49
2019-04-23T12:20:48.799Z,27.23
2019-04-23T12:22:02.866Z,26.64
2019-04-23T12:23:57.244Z,27.03
2019-04-23T12:25:58.236Z,27.12
2019-04-23T12:27:00.698Z,27.24
2019-04-23T12:27:39.360Z,26.61
2019-04-23T12:28:50.122Z,26.11
2019-04-23T12:31:56.737Z,25.78
2019-04-23T12:32:57.224Z,25.38
2019-04-23T12:35:47.147Z,25.11
2019-04-23T12:36:56.928Z,24.98
2019-04-23T12:38:52.751Z,24.94
2019-04-23T12:40:00.495Z,24.99
2019-04-23T12:41:04.975Z,25.14
2019-04-23T12:41:54.616Z,25.16
2019-04-23T12:43:54.493Z,25.01
2019-04-23T12:44:56.665Z,25.24
2019-04-23T12:45:53.270Z,25.09
2019-04-23T12:46:57.660Z,24.93
2019-04-23T12:49:01.308Z,24.83
2019-04-23T12:51:53.792Z,24.39
2019-04-23T12:52:51.282Z,24.30
2019-04-23T12:53:48.364Z,24.34
2019-04-23T12:57:05.339Z,24.33
2019-04-23T12:58:45.201Z,24.63
2019-04-23T12:59:50.084Z,24.92
2019-04-23T13:00:45.835Z,24.98
2019-04-23T13:01:58.609Z,25.09
2019-04-23T13:02:55.479Z,25.04
2019-04-23T13:03:49.187Z,25.16
2019-04-23T13:04:51.888Z,24.90
2019-04-23T13:05:49.158Z,24.97
2019-04-23T13:06:56.347Z,24.86
2019-04-23T13:07:52.183Z,25.04
2019-04-23T13:09:14.012Z,24.97
2019-04-23T13:09:55.724Z,24.61
2019-04-23T13:11:52.889Z,24.64
2019-04-23T13:13:53.607Z,24.64
2019-04-23T13:14:57.349Z,24.74
2019-04-23T13:15:48.077Z,24.41
2019-04-23T13:17:02.375Z,24.33
2019-04-23T13:17:53.877Z,24.33
2019-04-23T13:18:49.591Z,24.15
2019-04-23T13:19:54.693Z,24.15
2019-04-23T13:20:42.193Z,24.05
2019-04-23T13:22:04.706Z,24.05
2019-04-23T13:22:58.056Z,24.21
2019-04-23T13:23:47.498Z,24.36
2019-04-23T13:24:53.615Z,24.36
2019-04-23T13:26:46.392Z,24.36
2019-04-23T13:28:06.525Z,24.44
2019-04-23T13:28:52.766Z,24.46
2019-04-23T13:30:08.703Z,24.12
2019-04-23T13:30:53.040Z,24.18
2019-04-23T13:31:54.363Z,23.99
2019-04-23T13:32:56.339Z,23.81
2019-04-23T13:34:58.862Z,23.64
2019-04-23T13:36:14.515Z,23.49
2019-04-23T13:36:51.350Z,23.47
2019-04-23T13:38:03.682Z,23.50
2019-04-23T13:38:47.309Z,23.50
2019-04-23T13:39:52.172Z,23.50
2019-04-23T13:40:55.588Z,23.47
2019-04-23T13:41:47.881Z,23.18
2019-04-23T13:42:55.465Z,23.31
2019-04-23T13:43:47.823Z,23.14
2019-04-23T13:44:57.449Z,23.00
2019-04-23T13:46:54.445Z,23.16
2019-04-23T13:48:06.748Z,23.19
2019-04-23T13:48:48.910Z,23.14
2019-04-23T13:51:47.221Z,23.06
2019-04-23T13:55:44.434Z,23.31
2019-04-23T13:57:23.703Z,23.26
2019-04-23T13:58:53.243Z,23.54
2019-04-23T13:59:54.065Z,23.81
2019-04-23T14:01:00.874Z,23.82
2019-04-23T14:01:50.367Z,23.90
2019-04-23T14:02:52.512Z,24.09
2019-04-23T14:04:50.777Z,24.14
2019-04-23T14:05:49.332Z,24.12
2019-04-23T14:06:52.159Z,23.84
2019-04-23T14:07:56.538Z,23.67
2019-04-23T14:10:14.010Z,23.57
2019-04-23T14:10:55.788Z,23.62
2019-04-23T14:11:47.438Z,23.71
2019-04-23T14:13:08.411Z,23.84
2019-04-23T14:14:08.215Z,23.78
2019-04-23T14:14:55.939Z,23.79
2019-04-23T14:17:01.250Z,23.90
2019-04-23T14:18:11.061Z,23.96
2019-04-23T14:19:53.489Z,23.94
2019-04-23T14:20:52.045Z,23.96
2019-04-23T14:21:57.303Z,23.86
2019-04-23T14:26:13.032Z,23.79
2019-04-23T14:26:48.611Z,23.69
2019-04-23T14:27:57.767Z,23.84
2019-04-23T14:28:44.659Z,23.79
2019-04-23T14:29:59.630Z,23.78
2019-04-23T14:30:54.237Z,23.81
2019-04-23T14:31:53.783Z,23.78
2019-04-23T14:32:54.336Z,23.75
2019-04-23T14:34:00.143Z,23.71
2019-04-23T14:35:06.031Z,23.69
2019-04-23T14:35:54.477Z,23.52
2019-04-23T14:36:57.801Z,23.52
2019-04-23T14:38:09.215Z,23.56
2019-04-23T14:38:52.774Z,23.38
2019-04-23T14:39:52.839Z,23.22
2019-04-23T14:41:53.947Z,23.15
2019-04-23T14:43:03.406Z,23.25
2019-04-23T14:43:56.411Z,23.18
2019-04-23T14:45:09.795Z,23.11
2019-04-23T14:46:18.800Z,23.07
2019-04-23T14:48:00.746Z,22.99
2019-04-23T14:49:03.598Z,22.99
2019-04-23T14:50:48.852Z,22.89
2019-04-23T14:51:49.755Z,22.97
2019-04-23T14:53:00.432Z,23.04
2019-04-23T14:53:48.401Z,23.07
2019-04-23T14:55:22.637Z,23.07
2019-04-23T14:55:57.143Z,23.09
2019-04-23T14:56:56.911Z,22.96
2019-04-23T14:58:06.417Z,23.11
2019-04-23T14:59:55.240Z,23.04
2019-04-23T15:01:51.394Z,23.34
2019-04-23T15:02:53.339Z,23.39
2019-04-23T15:04:56.553Z,23.56
2019-04-23T15:06:04.888Z,23.69
2019-04-23T15:07:17.020Z,23.59
2019-04-23T15:07:50.773Z,23.45
2019-04-23T15:08:58.940Z,23.37
2019-04-23T15:09:57.516Z,23.42
2019-04-23T15:11:06.140Z,23.42
2019-04-23T15:11:59.365Z,23.34
2019-04-23T15:12:53.913Z,23.32
2019-04-23T15:13:51.943Z,23.19
2019-04-23T15:15:02.889Z,23.23
2019-04-23T15:15:58.022Z,23.19
2019-04-23T15:16:54.466Z,23.18
2019-04-23T15:17:49.613Z,23.06
2019-04-23T15:19:02.630Z,23.06
2019-04-23T15:20:00.199Z,23.11
2019-04-23T15:21:12.407Z,23.11
2019-04-23T15:22:10.095Z,23.01
2019-04-23T15:23:02.598Z,23.09
2019-04-23T15:24:00.189Z,23.09
2019-04-23T15:26:39.443Z,23.11
2019-04-23T15:27:56.577Z,22.91
2019-04-23T15:28:05.928Z,22.93
2019-04-23T15:28:31.078Z,22.93
2019-04-23T15:29:38.692Z,22.85
2019-04-23T15:31:00.145Z,22.78
2019-04-23T15:31:59.316Z,22.70
2019-04-23T15:33:03.785Z,22.66
2019-04-23T15:35:03.068Z,22.61
2019-04-23T15:36:02.274Z,22.57
2019-04-23T15:37:00.845Z,22.45
2019-04-23T15:39:56.711Z,22.27
2019-04-23T15:40:51.209Z,22.15
2019-04-23T15:44:00.495Z,22.17
2019-04-23T15:44:56.013Z,22.15
2019-04-23T15:45:57.346Z,22.05
2019-04-23T15:49:05.657Z,22.05
2019-04-23T15:49:51.806Z,21.99
2019-04-23T15:50:53.705Z,22.01
2019-04-23T15:51:56.644Z,22.08
2019-04-23T15:53:49.640Z,21.99
2019-04-23T15:55:49.284Z,22.14
2019-04-23T15:56:59.538Z,22.11
2019-04-23T15:59:04.427Z,22.04
2019-04-23T15:59:52.006Z,22.08
2019-04-23T16:00:48.197Z,22.06
2019-04-23T16:01:40.329Z,22.08
2019-04-23T16:02:21.616Z,22.05
2019-04-23T16:03:21.603Z,21.98
2019-04-23T16:04:20.802Z,22.06
2019-04-23T16:05:21.686Z,22.05
2019-04-23T16:06:23.543Z,22.06
2019-04-23T16:07:38.218Z,22.11
2019-04-23T16:08:58.961Z,22.06